Impacts TAF Board
For situational awareness. Not to be used for flight planning purposes.
IDs:

KMDW - Chicago/Midway Intl, IL, US

Issued at 1729 UTC 23 Sep 2018
Updated at 1943 UTC 23 Sep 2018
Potential Impact None Slight Moderate High
Time1853Z 23/20Z 23/21Z 23/22Z 23/23Z 24/00Z 24/01Z 24/02Z 24/03Z 24/04Z 24/05Z 24/06Z 24/07Z 24/08Z>>
Type OBS PRVL PRVL PRVL PRVL PRVL PRVL PRVL PRVL PRVL PRVL PRVL PRVL PRVL
VIS 10 >6 >6 >6 >6 >6 >6 >6 >6 >6 >6 >6 >6 >6
CIG -- -- -- -- -- -- -- -- -- -- -- -- -- --
Cover FEW SKC SKC SKC SKC SKC FEW FEW FEW FEW FEW FEW FEW FEW
FltCat VFR VFR VFR VFR VFR VFR VFR VFR VFR VFR VFR VFR VFR VFR
WX -- -- -- -- -- -- -- -- -- -- -- -- -- --
WDir 70 90 90 90 90 90 110 110 110 110 110 110 110 110
WSpd 7 10 10 10 10 10 5 5 5 5 5 5 5 5
WGst 16 -- -- -- -- -- -- -- -- -- -- -- -- --
Raw TAF
KMDW 231729Z 2318/2424 09010KT P6SM SKC
  FM240100 11005KT P6SM FEW250
  FM241600 12006KT P6SM BKN025
  FM242100 14007KT P6SM SCT010 BKN015


Raw METAR
KMDW 231853Z 07007G16KT 040V100 10SM FEW030 20/11 A3013 RMK AO2 WSHFT 1829 SLP202 T02000106
KMDW 231849Z 08009G16KT 10SM FEW030 21/11 A3014 RMK AO2 WSHFT 1829
KMDW 231753Z 08006G14KT 10SM FEW030 20/10 A3016 RMK AO2 SLP211 T02000100 10206 20117 58013
KMDW 231653Z 06008KT 10SM FEW030 20/09 A3018 RMK AO2 SLP216 T02000094

METAR Board
Radar Display
Forecast Discussion
For situational awareness. Not to be used for flight planning purposes.